Dayton, OH (45437)

12:19 PM EDT on June 02, 2015 (GMT -0400)
Gardenview | | Change Station
CLOSE
Current Station
Personal Weather Station
Location: Dayton, OH
Elevation: 958 ft
Nearby Weather Stations

Elev 958 ft 39.76 °N, 84.08 °W | Updated 4 minutes ago

Overcast
Overcast
55.9 °F
Feels Like 55.9 °F
N
1.1
Wind Variable Wind from WSW

Today
High -- | Low -- °F
--% Chance of Precip.
Yesterday
High -- | Low -- °F
Precip. -- in
6:10 AM 8:59 PM
Full, 100% visible
Pressure 30.19 in
Visibility 10.0 miles
Clouds Overcast 1200 ft
Dew Point 51 °F
Humidity 84%
Rainfall 0.00 in
Snow Depth Not available.
UV 3 out of 12
Pollen 7.40 out of 12
Air Quality Not available.
Flu Activity Sporadic
METAR KFFO 021558Z 01007KT 10SM OVC012 13/10 A3017 RMK AO2A SLP221 T01270098

More Conditions Fewer Conditions

Pressure 30.19 in
Visibility 10.0 miles
Clouds Overcast 1200 ft
Dew Point 51 °F
Humidity 84%
Rainfall 0.00 in
Snow Depth Not available.
UV 3 out of 12
Pollen 7.40 out of 12
Air Quality Not available.
Flu Activity Sporadic
METAR KFFO 021558Z 01007KT 10SM OVC012 13/10 A3017 RMK AO2A SLP221 T01270098

More Conditions Fewer Conditions

10-Day Weather Forecast

Almanac

Astronomy

Jun. 02, 2015 Rise Set
Actual Time
Civil Twilight
Nautical Twilight
Astronomical Twilight
Moon
Length of Visible Light
Length of Day
Tomorrow will be .
, % of the Moon is Illuminated

Today's Extremes

State Highs State Lows

Community

WunderPhotos

Upload Photos

1,825,973 photos uploaded!

WunderBlogs® & News

Nearby

Air Quality

  Air Quality AQ Index Pollutant
Not available.

Snow Depth

Station Depth Elevation

Earthquake Activity

City Distance Mag. Time & Date
Minimum magnitude displayed is 2.5.

Coastal Water Temperatures

Place Temperature

Stations

Nearby Weather Stations

Station Location Temp. Windchill Dew Point Humidity Wind Precip. Elev Updated Type